Time;durP1;ratioP1;P1;durP2;ratioP2;P2;SDS_P1;SDS_P2;PMS_P1;PMS_P2;Temp;Humidity;BMP_temperature;BMP_pressure;BME280_temperature;BME280_humidity;BME280_pressure;Samples;Min_cycle;Max_cycle;Signal;HPM_P1;HPM_P2
2022/05/31 00:02:23;;;;;;;3.27;1.90;;;8.20;99.90;;;;;;5010457;28;20673;-75
2022/05/31 00:04:49;;;;;;;3.80;2.47;;;8.20;99.90;;;;;;5011250;28;20198;-75
2022/05/31 00:07:14;;;;;;;3.33;2.40;;;8.20;99.90;;;;;;5011189;28;20418;-75
2022/05/31 00:09:40;;;;;;;3.33;2.47;;;8.20;99.90;;;;;;5010812;28;20513;-75
2022/05/31 00:12:06;;;;;;;2.97;2.77;;;8.20;99.90;;;;;;5010468;28;20201;-75
2022/05/31 00:14:33;;;;;;;3.30;3.00;;;8.10;99.90;;;;;;5010975;28;20639;-75
2022/05/31 00:17:00;;;;;;;2.70;2.53;;;8.10;99.90;;;;;;5010931;28;20435;-75
2022/05/31 00:19:26;;;;;;;2.70;2.50;;;8.00;99.90;;;;;;5011179;28;20414;-76
2022/05/31 00:22:06;;;;;;;2.77;2.57;;;8.00;99.90;;;;;;5010467;28;20460;-76
2022/05/31 00:24:32;;;;;;;3.27;2.97;;;8.00;99.90;;;;;;5010910;28;20418;-76
2022/05/31 00:26:58;;;;;;;3.00;2.67;;;8.00;99.90;;;;;;5013584;28;20414;-75
2022/05/31 00:29:23;;;;;;;6.50;2.80;;;8.00;99.90;;;;;;5014500;28;20219;-76
2022/05/31 00:31:50;;;;;;;3.00;2.27;;;7.90;99.90;;;;;;5013904;28;20217;-75
2022/05/31 00:34:17;;;;;;;2.93;2.73;;;7.90;99.90;;;;;;5014285;28;20177;-76
2022/05/31 00:36:46;;;;;;;2.20;2.10;;;7.80;99.90;;;;;;5014789;28;20448;-75
2022/05/31 00:39:12;;;;;;;2.27;2.17;;;7.80;99.90;;;;;;5014261;28;20425;-75
2022/05/31 00:41:39;;;;;;;2.80;2.50;;;7.70;99.90;;;;;;5014011;28;20997;-75
2022/05/31 00:44:11;;;;;;;3.50;3.20;;;7.70;99.90;;;;;;5014653;28;20412;-75
2022/05/31 00:46:48;;;;;;;2.63;2.50;;;7.60;99.90;;;;;;5014487;28;20817;-75
2022/05/31 00:49:26;;;;;;;4.63;2.87;;;7.60;99.90;;;;;;5014337;28;20836;-75
2022/05/31 00:51:54;;;;;;;3.40;2.57;;;7.60;99.90;;;;;;5013286;28;20485;-75
2022/05/31 00:54:24;;;;;;;3.70;2.50;;;7.50;99.90;;;;;;5014115;28;20987;-76
2022/05/31 00:56:51;;;;;;;3.50;2.37;;;7.50;99.90;;;;;;5013999;28;20415;-75
2022/05/31 00:59:24;;;;;;;3.30;2.77;;;7.50;99.90;;;;;;5013582;28;20446;-75
2022/05/31 02:32:27;;;;;;;2.97;2.77;;;7.00;99.90;;;;;;5363169;23;20481;-73
2022/05/31 02:34:53;;;;;;;2.47;2.27;;;7.00;99.90;;;;;;5010967;28;20792;-72
2022/05/31 02:37:19;;;;;;;5.00;2.60;;;7.00;99.90;;;;;;5006721;28;20196;-74
2022/05/31 02:39:45;;;;;;;3.20;2.93;;;7.00;99.90;;;;;;4997338;28;20416;-74
2022/05/31 02:42:11;;;;;;;3.50;2.70;;;7.00;99.90;;;;;;4998148;28;20426;-74
2022/05/31 02:44:38;;;;;;;3.77;3.47;;;7.00;99.90;;;;;;4990733;28;20415;-74
2022/05/31 02:47:05;;;;;;;4.57;2.93;;;6.90;99.90;;;;;;4992203;28;20409;-74
2022/05/31 02:49:31;;;;;;;2.63;2.43;;;6.90;99.90;;;;;;4992013;28;20477;-74
2022/05/31 02:51:59;;;;;;;3.63;2.60;;;6.90;99.90;;;;;;4991968;28;20442;-74
2022/05/31 02:54:25;;;;;;;6.90;3.37;;;6.90;99.90;;;;;;4992068;28;20190;-74
2022/05/31 02:56:50;;;;;;;2.90;2.70;;;6.90;99.90;;;;;;4992012;28;20432;-74
2022/05/31 02:59:16;;;;;;;3.50;2.50;;;6.90;99.90;;;;;;4992014;28;20425;-75
2022/05/31 03:01:43;;;;;;;2.67;2.47;;;6.90;99.90;;;;;;4991951;28;20199;-75
2022/05/31 03:04:10;;;;;;;4.03;3.00;;;6.80;99.90;;;;;;4990583;28;20239;-74
2022/05/31 03:06:35;;;;;;;2.83;2.60;;;6.80;99.90;;;;;;4992342;28;20448;-74
2022/05/31 03:09:01;;;;;;;4.00;3.50;;;6.80;99.90;;;;;;4992035;28;21007;-75
2022/05/31 03:11:32;;;;;;;3.40;3.10;;;6.80;99.90;;;;;;4991802;28;20233;-74
2022/05/31 03:14:04;;;;;;;3.10;2.90;;;6.80;99.90;;;;;;4991743;28;20652;-74
2022/05/31 03:16:31;;;;;;;3.37;3.17;;;6.80;99.90;;;;;;4992056;28;20435;-74
2022/05/31 03:19:05;;;;;;;3.07;2.87;;;6.80;99.90;;;;;;4991997;28;20456;-74
2022/05/31 03:21:39;;;;;;;3.03;2.47;;;6.80;99.90;;;;;;4991705;28;20439;-74
2022/05/31 03:24:17;;;;;;;3.50;3.20;;;6.70;99.90;;;;;;4991869;28;20455;-74
2022/05/31 03:26:44;;;;;;;3.10;2.87;;;6.70;99.90;;;;;;4992534;28;20500;-74
2022/05/31 03:29:11;;;;;;;3.33;3.03;;;6.70;99.90;;;;;;4991652;28;20468;-77
2022/05/31 03:31:37;;;;;;;3.80;3.33;;;6.70;99.90;;;;;;4991389;28;20974;-74
2022/05/31 03:34:03;;;;;;;2.80;2.60;;;6.70;99.90;;;;;;4991469;28;20483;-74
2022/05/31 03:36:29;;;;;;;3.40;3.10;;;6.70;99.90;;;;;;4991827;28;20445;-74
2022/05/31 03:38:54;;;;;;;2.83;2.63;;;6.70;99.90;;;;;;4991801;28;20185;-74
2022/05/31 03:41:20;;;;;;;3.10;2.90;;;6.70;99.90;;;;;;4990044;28;20218;-74
2022/05/31 03:43:45;;;;;;;4.30;3.90;;;6.70;99.90;;;;;;4991477;28;20192;-74
2022/05/31 03:46:15;;;;;;;7.73;3.60;;;6.80;99.90;;;;;;4991588;28;20183;-74
2022/05/31 03:48:40;;;;;;;3.30;3.07;;;6.90;99.90;;;;;;4991598;28;20693;-75
2022/05/31 03:51:10;;;;;;;6.50;2.87;;;7.00;99.90;;;;;;4991124;28;20517;-74
2022/05/31 03:53:36;;;;;;;3.27;3.07;;;7.10;99.90;;;;;;4991577;28;20554;-75
2022/05/31 03:56:03;;;;;;;3.10;2.90;;;7.20;99.90;;;;;;4991468;28;20468;-74
2022/05/31 03:58:29;;;;;;;3.67;2.80;;;7.20;99.90;;;;;;4991648;28;20472;-74
2022/05/31 04:00:55;;;;;;;3.27;2.93;;;7.30;99.90;;;;;;4992293;28;20451;-74
2022/05/31 04:03:20;;;;;;;3.33;2.80;;;7.30;99.90;;;;;;4995040;28;20193;-74
2022/05/31 04:05:46;;;;;;;4.07;3.10;;;7.40;99.90;;;;;;4995460;28;20210;-72
2022/05/31 04:08:12;;;;;;;3.83;3.20;;;7.40;99.90;;;;;;4995150;28;20198;-71
2022/05/31 04:10:43;;;;;;;3.70;2.57;;;7.50;99.90;;;;;;4995131;28;20232;-71
2022/05/31 04:13:09;;;;;;;5.00;3.73;;;7.50;99.90;;;;;;4994374;28;20449;-72
2022/05/31 04:15:35;;;;;;;7.30;3.20;;;7.60;99.90;;;;;;4995097;28;20425;-72
2022/05/31 04:18:02;;;;;;;2.70;2.50;;;7.60;99.90;;;;;;4995300;28;20417;-71
2022/05/31 04:20:29;;;;;;;3.80;3.50;;;7.60;99.90;;;;;;4995130;28;20198;-71
2022/05/31 04:23:57;;;;;;;3.60;3.00;;;7.70;99.90;;;;;;4994725;28;20817;-72
2022/05/31 04:25:40;;;;;;;4.87;3.03;;;7.70;99.90;;;;;;4995056;28;20946;-71
2022/05/31 04:28:06;;;;;;;4.87;3.80;;;7.80;99.90;;;;;;4994594;28;20468;-72
2022/05/31 04:30:31;;;;;;;3.10;2.83;;;7.70;99.90;;;;;;4994816;28;20587;-69
2022/05/31 04:32:57;;;;;;;3.30;3.10;;;7.70;99.90;;;;;;4994600;28;20489;-71
2022/05/31 04:35:23;;;;;;;3.77;3.40;;;7.80;99.90;;;;;;4994686;28;20232;-71
2022/05/31 04:37:48;;;;;;;6.83;3.10;;;7.90;99.90;;;;;;4994990;28;20195;-72
2022/05/31 04:40:14;;;;;;;4.37;3.43;;;7.90;99.90;;;;;;4994544;28;20198;-71
2022/05/31 04:42:41;;;;;;;4.10;3.73;;;8.00;99.90;;;;;;4994398;28;20197;-71
2022/05/31 04:45:08;;;;;;;4.50;3.77;;;8.10;99.90;;;;;;4975191;28;20679;-72
2022/05/31 04:47:33;;;;;;;3.23;3.03;;;8.20;99.90;;;;;;4975318;28;20494;-71
2022/05/31 04:49:59;;;;;;;3.90;3.23;;;8.30;99.90;;;;;;4991165;28;20427;-72
2022/05/31 04:52:25;;;;;;;7.63;3.77;;;8.40;99.90;;;;;;4994408;28;20194;-72
2022/05/31 04:54:50;;;;;;;6.70;3.33;;;8.60;99.90;;;;;;4994211;28;20178;-72
2022/05/31 04:57:15;;;;;;;6.97;3.93;;;8.70;99.90;;;;;;4994481;28;20192;-72
2022/05/31 04:59:41;;;;;;;3.67;3.30;;;8.90;99.90;;;;;;4995496;28;20198;-72
2022/05/31 05:02:06;;;;;;;3.03;2.80;;;9.70;99.90;;;;;;4996161;28;20695;-72
2022/05/31 05:04:33;;;;;;;4.00;2.40;;;12.00;99.90;;;;;;4994632;28;20328;-73
2022/05/31 05:06:59;;;;;;;6.03;2.67;;;14.60;99.90;;;;;;4993946;28;20187;-72
2022/05/31 05:09:24;;;;;;;2.33;2.23;;;17.00;99.90;;;;;;4993782;28;20488;-72
2022/05/31 05:11:50;;;;;;;2.77;2.40;;;18.60;99.90;;;;;;4993852;28;20561;-72
2022/05/31 05:14:15;;;;;;;2.97;2.13;;;19.40;99.90;;;;;;4993629;28;20191;-73
2022/05/31 05:16:41;;;;;;;2.30;2.10;;;20.60;99.90;;;;;;4993909;28;20222;-73
2022/05/31 05:19:06;;;;;;;2.40;2.20;;;21.10;99.90;;;;;;4993489;28;20175;-72
2022/05/31 05:21:32;;;;;;;2.10;2.00;;;21.20;99.90;;;;;;4987705;28;20619;-74
2022/05/31 05:23:57;;;;;;;2.40;2.20;;;21.30;99.90;;;;;;4983292;28;20188;-71
2022/05/31 05:26:23;;;;;;;2.50;1.70;;;21.70;99.90;;;;;;4987073;28;20183;-74
2022/05/31 05:31:35;;;;;;;2.70;1.90;;;21.80;99.90;;;;;;4972123;28;20222;-74
2022/05/31 05:34:03;;;;;;;3.40;3.10;;;21.90;99.90;;;;;;4973051;28;20466;-74
2022/05/31 05:36:29;;;;;;;2.93;2.73;;;22.20;99.90;;;;;;4972938;28;20416;-74
2022/05/31 05:38:55;;;;;;;4.47;2.80;;;22.10;99.90;;;;;;4978822;28;20415;-73
2022/05/31 05:41:23;;;;;;;4.40;2.60;;;22.00;99.90;;;;;;4986325;28;20441;-73
2022/05/31 05:43:49;;;;;;;4.13;2.70;;;21.30;99.90;;;;;;4993669;28;20648;-74
2022/05/31 05:46:18;;;;;;;4.97;2.97;;;21.10;99.90;;;;;;4993296;28;20426;-73
2022/05/31 05:48:44;;;;;;;4.13;2.67;;;20.60;99.90;;;;;;4993341;28;20195;-73
2022/05/31 05:51:18;;;;;;;3.40;2.53;;;20.00;99.90;;;;;;4992800;28;20923;-73
2022/05/31 05:53:44;;;;;;;3.90;3.20;;;19.10;99.90;;;;;;4993334;28;20441;-73
2022/05/31 05:56:11;;;;;;;3.03;2.83;;;18.50;99.90;;;;;;4993179;28;20840;-73
2022/05/31 05:58:37;;;;;;;3.40;3.13;;;18.20;99.90;;;;;;4993219;28;20473;-72
2022/05/31 06:01:06;;;;;;;12.13;3.67;;;18.20;99.90;;;;;;4992704;28;20946;-73
2022/05/31 06:03:39;;;;;;;6.93;3.37;;;18.40;99.90;;;;;;4993210;28;20555;-70
2022/05/31 06:06:05;;;;;;;3.33;3.03;;;18.90;99.90;;;;;;4992974;28;20414;-73
2022/05/31 06:08:39;;;;;;;6.00;3.40;;;18.90;99.90;;;;;;4993240;28;20473;-73
2022/05/31 06:11:19;;;;;;;4.00;3.60;;;18.80;99.90;;;;;;4992492;28;20946;-72
2022/05/31 06:14:11;;;;;;;5.27;3.10;;;18.60;99.90;;;;;;4993022;28;20407;-73
2022/05/31 06:16:42;;;;;;;5.10;4.60;;;18.40;99.90;;;;;;4982193;28;20423;-73
2022/05/31 06:19:22;;;;;;;3.80;3.37;;;18.00;99.90;;;;;;4992653;28;20410;-73
2022/05/31 06:21:50;;;;;;;3.83;3.40;;;17.70;99.90;;;;;;4991376;28;20438;-75
2022/05/31 06:24:17;;;;;;;5.30;3.67;;;17.50;99.90;;;;;;4993315;28;20421;-75
2022/05/31 06:26:43;;;;;;;4.63;3.63;;;17.20;99.90;;;;;;4991691;28;20473;-74
2022/05/31 06:29:08;;;;;;;4.50;3.47;;;17.20;99.90;;;;;;4991171;28;20459;-72
2022/05/31 06:31:34;;;;;;;5.33;3.73;;;16.90;99.90;;;;;;4992165;28;20207;-73
2022/05/31 06:34:00;;;;;;;4.23;3.40;;;16.80;99.90;;;;;;4992497;28;20186;-73
2022/05/31 06:36:25;;;;;;;6.60;3.97;;;16.90;99.90;;;;;;4992209;28;20233;-73
2022/05/31 06:38:51;;;;;;;4.60;3.83;;;17.10;99.90;;;;;;4992527;28;20198;-73
2022/05/31 06:41:16;;;;;;;5.63;4.03;;;17.70;99.90;;;;;;4990543;28;20207;-73
2022/05/31 06:43:42;;;;;;;3.30;3.00;;;18.00;99.90;;;;;;4992422;28;20269;-72
2022/05/31 06:46:10;;;;;;;8.43;3.00;;;18.10;99.90;;;;;;4992058;28;20175;-72
2022/05/31 06:48:35;;;;;;;4.23;2.90;;;18.30;99.90;;;;;;4992238;28;20215;-73
2022/05/31 06:51:08;;;;;;;5.97;3.10;;;17.90;99.90;;;;;;4991901;28;20430;-73
2022/05/31 06:59:02;;;;;;;5.10;2.73;;;17.80;99.90;;;;;;4992294;28;20413;-73
2022/05/31 07:01:31;;;;;;;3.20;2.50;;;18.30;99.90;;;;;;4991894;28;20843;-73
2022/05/31 07:03:58;;;;;;;3.53;2.30;;;18.20;99.90;;;;;;4990767;28;20437;-74
2022/05/31 07:06:24;;;;;;;2.40;2.20;;;18.20;99.90;;;;;;4992157;28;20414;-72
2022/05/31 07:08:49;;;;;;;3.13;2.90;;;18.50;99.90;;;;;;4991986;28;20512;-72
2022/05/31 07:11:15;;;;;;;5.60;2.60;;;18.70;99.90;;;;;;4991553;28;20633;-73
2022/05/31 07:13:40;;;;;;;6.13;2.30;;;19.00;99.90;;;;;;4992084;28;20172;-73
2022/05/31 07:16:06;;;;;;;7.30;2.47;;;19.10;99.90;;;;;;4992322;28;20199;-73
2022/05/31 07:18:31;;;;;;;2.50;2.00;;;19.10;99.90;;;;;;4991423;28;20185;-74
2022/05/31 07:20:57;;;;;;;4.87;2.47;;;19.40;99.90;;;;;;4995619;28;20195;-73
2022/05/31 07:23:23;;;;;;;5.27;2.73;;;19.50;99.90;;;;;;4980271;28;20639;-73
2022/05/31 07:25:48;;;;;;;4.97;2.97;;;19.60;99.90;;;;;;4971832;28;20180;-73
2022/05/31 07:28:13;;;;;;;7.60;3.60;;;20.00;99.90;;;;;;4972416;28;20200;-73
2022/05/31 07:30:39;;;;;;;3.40;3.13;;;20.60;99.90;;;;;;4972417;28;20203;-72
2022/05/31 07:33:05;;;;;;;9.00;3.77;;;21.20;99.90;;;;;;4972516;28;20703;-72
2022/05/31 07:35:30;;;;;;;6.63;3.20;;;21.50;99.90;;;;;;4973263;28;20187;-73
2022/05/31 07:37:56;;;;;;;10.43;3.83;;;21.80;99.90;;;;;;4976743;28;20230;-73
2022/05/31 07:40:22;;;;;;;5.70;3.03;;;21.60;99.90;;;;;;4976526;28;20669;-73
2022/05/31 07:42:47;;;;;;;2.30;2.10;;;21.60;99.90;;;;;;4976632;28;20332;-74
2022/05/31 07:45:13;;;;;;;3.00;1.87;;;21.70;99.90;;;;;;4976146;28;20183;-73
2022/05/31 07:47:38;;;;;;;3.87;2.80;;;21.70;99.90;;;;;;4984510;28;20267;-73
2022/05/31 07:50:04;;;;;;;3.07;2.10;;;21.70;99.90;;;;;;4995740;28;20226;-73
2022/05/31 07:52:32;;;;;;;3.27;2.57;;;21.70;99.90;;;;;;4995800;28;20254;-73
2022/05/31 07:54:58;;;;;;;3.73;2.00;;;21.80;99.90;;;;;;4995577;28;20442;-73
2022/05/31 08:00:08;;;;;;;7.97;2.37;;;22.80;99.90;;;;;;4995478;28;20604;-73
2022/05/31 08:02:34;;;;;;;2.83;1.97;;;22.20;99.90;;;;;;4995463;28;20833;-73
2022/05/31 08:05:00;;;;;;;5.20;1.97;;;22.30;99.90;;;;;;4995378;28;20422;-73
2022/05/31 08:07:25;;;;;;;3.63;1.57;;;22.30;99.90;;;;;;4995861;28;20175;-74
2022/05/31 08:09:51;;;;;;;2.60;1.83;;;22.50;99.90;;;;;;4995588;28;20415;-73
2022/05/31 08:12:16;;;;;;;4.50;1.53;;;23.20;99.90;;;;;;4994834;28;20672;-73
2022/05/31 08:14:42;;;;;;;4.77;1.40;;;23.30;99.90;;;;;;4995534;28;20172;-73
2022/05/31 08:17:09;;;;;;;2.13;1.93;;;23.50;99.90;;;;;;4995192;28;20301;-73
2022/05/31 08:19:36;;;;;;;2.97;1.20;;;23.40;99.90;;;;;;4995059;28;20171;-73
2022/05/31 08:22:02;;;;;;;1.50;1.37;;;23.90;99.90;;;;;;4994659;28;20438;-73
2022/05/31 08:24:28;;;;;;;3.37;1.70;;;24.20;99.90;;;;;;4994642;28;20767;-73
2022/05/31 08:26:54;;;;;;;2.17;1.30;;;24.20;99.90;;;;;;4995338;28;20172;-73
2022/05/31 08:29:20;;;;;;;1.90;1.13;;;24.60;99.90;;;;;;4995001;28;20465;-73
2022/05/31 08:31:46;;;;;;;1.33;1.10;;;25.20;99.90;;;;;;4994682;28;20488;-73
2022/05/31 08:34:13;;;;;;;1.33;0.90;;;25.50;99.90;;;;;;4994868;28;20443;-74
2022/05/31 08:36:39;;;;;;;1.40;1.30;;;25.80;99.90;;;;;;4994862;28;20262;-73
2022/05/31 08:39:05;;;;;;;2.90;2.00;;;26.20;99.90;;;;;;4995042;28;20442;-73
2022/05/31 08:41:36;;;;;;;4.93;1.10;;;25.90;98.40;;;;;;4994695;28;20191;-74
2022/05/31 08:44:32;;;;;;;1.37;1.17;;;26.00;99.40;;;;;;4994994;28;20172;-73
2022/05/31 08:47:18;;;;;;;1.77;1.07;;;25.90;98.10;;;;;;4994078;28;20423;-73
2022/05/31 08:52:40;;;;;;;5.93;1.27;;;26.40;97.70;;;;;;4994724;28;20465;-71
2022/05/31 08:58:32;;;;;;;3.70;1.10;;;27.00;97.80;;;;;;4974951;28;20423;-71
2022/05/31 09:00:59;;;;;;;2.80;1.00;;;26.80;96.40;;;;;;4974506;28;20846;-71
2022/05/31 09:03:40;;;;;;;2.40;1.00;;;27.30;96.70;;;;;;4974694;28;20433;-72
2022/05/31 09:06:10;;;;;;;1.90;1.50;;;27.20;96.10;;;;;;4974864;28;20404;-72
2022/05/31 09:08:51;;;;;;;4.40;1.00;;;27.30;95.40;;;;;;4974775;28;20896;-72
2022/05/31 09:11:22;;;;;;;2.80;1.23;;;27.40;95.50;;;;;;4974295;28;20514;-72
2022/05/31 09:14:11;;;;;;;1.00;0.90;;;27.60;95.60;;;;;;4974916;28;20407;-73
2022/05/31 09:16:48;;;;;;;8.63;1.27;;;28.40;95.80;;;;;;4974747;28;20415;-73
2022/05/31 09:19:37;;;;;;;3.83;1.70;;;29.10;93.50;;;;;;4974475;28;20419;-74
2022/05/31 09:22:03;;;;;;;2.77;1.67;;;29.40;93.00;;;;;;4973716;28;20668;-73
2022/05/31 09:24:29;;;;;;;1.17;0.97;;;29.60;91.80;;;;;;4974518;28;20502;-74
2022/05/31 09:27:06;;;;;;;2.63;1.53;;;28.60;90.90;;;;;;4974702;28;20784;-74
2022/05/31 09:29:58;;;;;;;1.50;1.30;;;28.40;92.00;;;;;;4974392;28;20207;-74
2022/05/31 09:32:46;;;;;;;1.97;1.17;;;28.90;90.20;;;;;;4974252;28;20651;-73
2022/05/31 09:35:50;;;;;;;3.33;1.30;;;28.80;90.80;;;;;;4974265;28;20403;-73
2022/05/31 09:38:41;;;;;;;2.23;1.30;;;28.70;91.70;;;;;;4974497;28;20788;-73
2022/05/31 09:41:25;;;;;;;1.90;1.40;;;28.40;88.10;;;;;;4973750;28;20810;-73
2022/05/31 09:44:15;;;;;;;1.23;1.00;;;27.60;89.60;;;;;;4974082;28;20462;-74
2022/05/31 09:47:00;;;;;;;2.90;1.37;;;27.40;89.70;;;;;;4974165;28;20716;-73
2022/05/31 09:49:37;;;;;;;1.40;1.10;;;26.80;88.70;;;;;;4974000;28;20829;-74
2022/05/31 09:52:30;;;;;;;1.33;1.07;;;26.20;90.20;;;;;;4973688;28;20536;-74
2022/05/31 09:58:10;;;;;;;3.23;1.30;;;25.40;91.10;;;;;;4973679;28;20474;-74
2022/05/31 10:00:57;;;;;;;4.10;1.40;;;25.90;92.50;;;;;;4973662;28;20421;-72
2022/05/31 10:03:33;;;;;;;2.13;1.13;;;26.30;93.60;;;;;;4973909;28;20423;-73
2022/05/31 10:06:13;;;;;;;1.87;1.70;;;26.90;92.60;;;;;;4973828;28;20403;-74
2022/05/31 10:08:39;;;;;;;1.73;1.00;;;27.50;90.80;;;;;;4971735;28;21239;-74
2022/05/31 10:11:09;;;;;;;1.37;1.27;;;27.80;91.70;;;;;;4973432;28;20522;-74
2022/05/31 10:13:43;;;;;;;2.03;1.53;;;28.20;90.60;;;;;;4973643;28;20172;-73
2022/05/31 10:16:24;;;;;;;4.40;1.27;;;28.60;90.60;;;;;;4972292;28;20856;-73
2022/05/31 10:18:58;;;;;;;1.30;1.13;;;28.30;90.10;;;;;;4973735;28;20419;-73
2022/05/31 10:21:40;;;;;;;3.17;1.53;;;27.90;89.70;;;;;;4973176;28;20809;-74
2022/05/31 10:24:08;;;;;;;2.87;1.67;;;27.40;91.30;;;;;;4973505;28;20408;-74
2022/05/31 10:26:38;;;;;;;2.93;2.07;;;27.10;92.80;;;;;;4973342;28;20539;-73
2022/05/31 10:29:23;;;;;;;2.20;1.60;;;26.70;92.50;;;;;;4972672;28;20521;-73
2022/05/31 10:31:50;;;;;;;5.20;1.60;;;26.60;93.90;;;;;;4973035;28;20473;-75
2022/05/31 10:34:32;;;;;;;3.20;2.10;;;26.10;94.10;;;;;;4976162;28;20507;-75
2022/05/31 10:36:59;;;;;;;2.10;1.90;;;26.00;94.30;;;;;;4975537;28;20430;-74
2022/05/31 10:39:28;;;;;;;2.90;1.47;;;26.00;94.00;;;;;;4975462;28;20419;-74
2022/05/31 10:41:57;;;;;;;3.03;1.93;;;26.00;94.40;;;;;;4973201;28;20939;-74
2022/05/31 10:44:50;;;;;;;3.70;2.00;;;26.40;94.80;;;;;;4973187;28;20474;-72
2022/05/31 10:47:20;;;;;;;4.50;2.00;;;27.10;94.10;;;;;;4973661;28;20430;-73
2022/05/31 10:49:47;;;;;;;3.93;1.90;;;27.40;92.50;;;;;;4972897;28;20476;-73
2022/05/31 10:52:25;;;;;;;2.37;2.17;;;27.20;92.80;;;;;;4972503;28;20427;-73
2022/05/31 10:55:08;;;;;;;3.37;2.07;;;27.20;92.90;;;;;;4972791;28;20418;-74
2022/05/31 10:57:59;;;;;;;4.33;2.00;;;27.10;92.80;;;;;;4972873;28;20413;-73
2022/05/31 11:00:24;;;;;;;3.17;1.80;;;27.10;93.30;;;;;;4972708;28;20877;-71
2022/05/31 11:03:05;;;;;;;1.20;1.10;;;26.80;93.10;;;;;;4972679;28;20436;-73
2022/05/31 11:05:43;;;;;;;4.10;1.77;;;26.50;93.60;;;;;;4972281;28;20168;-71
2022/05/31 11:11:39;;;;;;;2.50;1.37;;;26.70;92.90;;;;;;4972356;28;20470;-73
2022/05/31 11:14:23;;;;;;;1.20;1.10;;;26.40;90.90;;;;;;4972519;28;20812;-74
2022/05/31 11:17:06;;;;;;;3.60;1.37;;;26.10;91.20;;;;;;4971592;28;20419;-72
2022/05/31 11:19:46;;;;;;;1.63;1.47;;;26.40;92.70;;;;;;4972548;28;20999;-73
2022/05/31 11:22:24;;;;;;;4.40;1.60;;;26.80;90.70;;;;;;4971911;28;20436;-73
2022/05/31 11:25:22;;;;;;;5.77;1.37;;;27.00;90.30;;;;;;4986055;28;20614;-73
2022/05/31 11:28:10;;;;;;;2.10;1.10;;;26.90;90.10;;;;;;4991851;28;20561;-73
2022/05/31 11:30:50;;;;;;;1.47;1.03;;;26.70;90.20;;;;;;4991511;28;20460;-71
2022/05/31 11:33:41;;;;;;;2.30;1.03;;;26.40;88.60;;;;;;4991687;28;20418;-73
2022/05/31 11:36:37;;;;;;;1.57;1.10;;;26.10;89.80;;;;;;4990260;28;20926;-72
2022/05/31 11:39:21;;;;;;;3.43;1.00;;;26.10;90.10;;;;;;4990019;28;20406;-73
2022/05/31 11:42:17;;;;;;;1.70;1.07;;;26.40;89.60;;;;;;5004756;28;20585;-74
2022/05/31 11:45:01;;;;;;;2.47;1.00;;;26.60;85.10;;;;;;4990023;28;20407;-73
2022/05/31 11:47:40;;;;;;;1.53;1.17;;;26.70;86.40;;;;;;4989858;28;20406;-73
2022/05/31 11:50:20;;;;;;;3.83;1.10;;;26.50;82.70;;;;;;4989912;28;20422;-73
2022/05/31 11:53:05;;;;;;;1.83;1.03;;;26.10;81.10;;;;;;4991475;28;20480;-73
2022/05/31 11:55:49;;;;;;;1.60;1.00;;;25.80;86.60;;;;;;4992033;28;21102;-73
2022/05/31 11:58:33;;;;;;;1.43;1.00;;;25.70;86.10;;;;;;4991813;28;20493;-73
2022/05/31 12:01:20;;;;;;;3.40;1.20;;;25.70;86.50;;;;;;4991473;28;20431;-72
2022/05/31 12:04:04;;;;;;;1.00;0.90;;;26.00;86.90;;;;;;4992089;28;20421;-73
2022/05/31 12:07:04;;;;;;;3.47;1.30;;;26.10;85.30;;;;;;4991757;28;20406;-75
2022/05/31 12:09:35;;;;;;;2.30;2.10;;;26.20;86.30;;;;;;4991926;28;20461;-74
2022/05/31 12:12:13;;;;;;;2.50;1.00;;;26.00;87.10;;;;;;4991136;28;20434;-73
2022/05/31 12:14:43;;;;;;;1.87;1.17;;;25.90;86.30;;;;;;4991148;28;20414;-74
2022/05/31 12:17:10;;;;;;;2.50;1.27;;;26.10;88.90;;;;;;4991452;28;20406;-74
2022/05/31 12:19:59;;;;;;;1.47;1.37;;;26.20;86.00;;;;;;4991343;28;20414;-73
2022/05/31 12:22:33;;;;;;;3.60;0.90;;;26.20;87.80;;;;;;4993092;28;20452;-74
2022/05/31 12:25:02;;;;;;;3.60;1.07;;;26.30;84.40;;;;;;4995051;28;20418;-74
2022/05/31 12:27:38;;;;;;;1.20;1.10;;;26.40;85.10;;;;;;4995267;28;20811;-73
2022/05/31 12:30:20;;;;;;;7.43;1.30;;;26.30;84.40;;;;;;4994807;28;20459;-73
2022/05/31 12:32:48;;;;;;;2.67;1.10;;;26.10;84.40;;;;;;4994768;28;20457;-73
2022/05/31 12:35:32;;;;;;;2.10;0.87;;;25.50;87.00;;;;;;4994607;28;20468;-73
2022/05/31 12:38:00;;;;;;;2.93;1.40;;;25.70;87.20;;;;;;4994974;28;20509;-73
2022/05/31 12:40:32;;;;;;;3.20;1.00;;;25.30;86.30;;;;;;4994634;28;20549;-73
2022/05/31 12:42:59;;;;;;;3.50;1.13;;;25.20;86.00;;;;;;4994756;28;20438;-73
2022/05/31 12:45:38;;;;;;;1.20;0.90;;;25.40;85.40;;;;;;4994890;28;20514;-73
2022/05/31 12:48:09;;;;;;;8.03;1.53;;;25.70;87.00;;;;;;4994840;28;20493;-73
2022/05/31 12:50:56;;;;;;;5.40;1.10;;;25.90;84.80;;;;;;4994389;28;20415;-73
2022/05/31 12:53:37;;;;;;;6.23;1.07;;;25.90;87.00;;;;;;4994571;28;20907;-73
2022/05/31 12:56:04;;;;;;;3.40;1.30;;;25.80;87.10;;;;;;4994486;28;20986;-74
2022/05/31 12:58:45;;;;;;;4.03;1.30;;;25.80;84.20;;;;;;4994645;28;20938;-74
2022/05/31 13:01:10;;;;;;;1.83;1.17;;;25.90;84.10;;;;;;4994020;28;20783;-74
2022/05/31 13:03:42;;;;;;;2.93;1.20;;;25.90;83.80;;;;;;4994636;28;20433;-74
2022/05/31 13:06:11;;;;;;;2.80;1.63;;;25.80;82.50;;;;;;4994087;28;20269;-73
2022/05/31 13:20:09;;;;;;;2.60;1.17;;;24.70;82.30;;;;;;4993944;28;20502;-73
2022/05/31 13:22:40;;;;;;;1.23;1.07;;;24.50;83.70;;;;;;4993824;28;20521;-73
2022/05/31 13:25:28;;;;;;;0.90;0.90;;;24.30;82.30;;;;;;4993828;28;20450;-72
2022/05/31 13:27:56;;;;;;;1.43;1.17;;;24.00;83.50;;;;;;4994639;28;20517;-73
2022/05/31 13:30:25;;;;;;;2.63;1.30;;;24.10;83.30;;;;;;4996846;28;20422;-73
2022/05/31 13:32:51;;;;;;;9.70;1.00;;;24.10;83.50;;;;;;4994635;28;20501;-73
2022/05/31 13:35:24;;;;;;;1.00;0.90;;;24.00;81.90;;;;;;4993668;28;20430;-73
2022/05/31 13:38:02;;;;;;;5.30;1.40;;;23.80;83.10;;;;;;4993730;28;20182;-74
2022/05/31 13:40:46;;;;;;;0.90;0.80;;;23.70;84.10;;;;;;4993593;28;20507;-73
2022/05/31 13:43:35;;;;;;;4.47;1.50;;;23.80;85.00;;;;;;4993426;28;20929;-73
2022/05/31 13:46:23;;;;;;;3.87;1.20;;;24.20;84.30;;;;;;4993510;28;20431;-73
2022/05/31 13:48:57;;;;;;;3.90;1.17;;;24.40;83.20;;;;;;4992204;28;20463;-73
2022/05/31 13:51:26;;;;;;;3.27;1.30;;;24.40;86.10;;;;;;4993252;28;20440;-73
2022/05/31 13:53:52;;;;;;;2.93;1.03;;;24.50;86.60;;;;;;4993297;28;20413;-73
2022/05/31 13:56:25;;;;;;;2.20;1.03;;;24.60;86.90;;;;;;4993044;28;20931;-73
2022/05/31 13:58:53;;;;;;;3.80;1.13;;;24.40;84.20;;;;;;4993287;28;20509;-74
2022/05/31 14:01:24;;;;;;;1.57;1.00;;;24.40;85.10;;;;;;4992749;28;20441;-74
2022/05/31 14:03:51;;;;;;;4.03;1.87;;;24.20;85.40;;;;;;4993258;28;20433;-74
2022/05/31 14:06:19;;;;;;;2.80;1.43;;;24.00;84.40;;;;;;4993728;28;20421;-73
2022/05/31 14:08:55;;;;;;;4.17;1.30;;;24.20;85.90;;;;;;4993051;28;20573;-74
2022/05/31 14:11:26;;;;;;;2.30;1.30;;;24.30;85.20;;;;;;4992893;28;20431;-73
2022/05/31 14:13:56;;;;;;;4.53;1.47;;;24.00;84.50;;;;;;4993210;28;20922;-73
2022/05/31 14:16:42;;;;;;;1.83;1.47;;;23.80;86.10;;;;;;4993161;28;20407;-74
2022/05/31 14:19:20;;;;;;;2.40;1.23;;;23.90;86.40;;;;;;4992949;28;20406;-73
2022/05/31 14:21:49;;;;;;;1.70;1.17;;;23.60;86.70;;;;;;4992811;28;20434;-74
2022/05/31 14:24:19;;;;;;;3.63;2.10;;;23.80;87.80;;;;;;4992806;28;20437;-73
2022/05/31 14:26:47;;;;;;;1.93;1.23;;;23.90;87.80;;;;;;4992801;28;20433;-73
2022/05/31 14:29:18;;;;;;;3.20;0.83;;;23.70;82.70;;;;;;4991965;28;20461;-73
2022/05/31 14:31:47;;;;;;;4.40;1.30;;;23.70;85.60;;;;;;4990591;28;20493;-74
2022/05/31 14:34:25;;;;;;;3.40;1.47;;;23.70;84.40;;;;;;4990739;28;20410;-72
2022/05/31 14:36:54;;;;;;;1.30;1.10;;;23.60;82.50;;;;;;4991066;28;20407;-73
2022/05/31 14:39:23;;;;;;;1.60;1.03;;;23.50;84.60;;;;;;4990745;28;20410;-74
2022/05/31 14:41:54;;;;;;;1.37;1.17;;;23.70;84.60;;;;;;4990659;28;20883;-73
2022/05/31 14:44:46;;;;;;;3.07;1.17;;;23.80;83.40;;;;;;4990711;28;20426;-73
2022/05/31 14:47:19;;;;;;;1.63;1.00;;;23.90;84.80;;;;;;4992288;28;20949;-73
2022/05/31 14:50:06;;;;;;;4.80;1.67;;;23.80;84.90;;;;;;4992621;28;20458;-73
2022/05/31 14:52:45;;;;;;;5.37;1.40;;;23.60;84.00;;;;;;4984900;28;20443;-73
2022/05/31 14:55:15;;;;;;;5.27;1.43;;;23.60;84.00;;;;;;4992525;28;20406;-73
2022/05/31 15:00:27;;;;;;;1.57;1.37;;;23.40;84.80;;;;;;4992424;28;20446;-73
2022/05/31 15:02:53;;;;;;;1.63;1.30;;;23.20;84.80;;;;;;4992348;28;20438;-73
2022/05/31 15:05:27;;;;;;;3.23;1.57;;;23.00;84.70;;;;;;4992148;28;20494;-73
2022/05/31 15:07:57;;;;;;;1.47;1.37;;;22.90;85.60;;;;;;4991756;28;20160;-73
2022/05/31 15:10:31;;;;;;;1.20;1.10;;;22.80;85.50;;;;;;4991916;28;20490;-72
2022/05/31 15:21:10;;;;;;;1.10;1.00;;;22.30;86.80;;;;;;4991648;28;20437;-74
2022/05/31 15:23:36;;;;;;;4.73;1.23;;;22.20;86.00;;;;;;4991877;28;20418;-74
2022/05/31 15:26:05;;;;;;;3.13;1.47;;;22.10;87.60;;;;;;4991854;28;20188;-74
2022/05/31 15:28:31;;;;;;;3.73;1.10;;;22.10;86.90;;;;;;4991824;28;20211;-73
2022/05/31 15:31:07;;;;;;;3.80;1.63;;;21.90;86.20;;;;;;4991584;28;20410;-73